Time;durP1;ratioP1;P1;durP2;ratioP2;P2;SDS_P1;SDS_P2;PMS_P1;PMS_P2;Temp;Humidity;BMP_temperature;BMP_pressure;BME280_temperature;BME280_humidity;BME280_pressure;Samples;Min_cycle;Max_cycle;Signal;HPM_P1;HPM_P2
2022/12/31 00:01:15;;;;;;;11.40;2.70;;;12.00;99.90;;;;;;5127520;27;20027;-56
2022/12/31 00:03:41;;;;;;;10.85;2.58;;;12.00;99.90;;;;;;5127534;27;20035;-58
2022/12/31 00:06:20;;;;;;;12.68;2.80;;;12.00;99.90;;;;;;5125896;27;20038;-60
2022/12/31 00:08:47;;;;;;;10.43;2.65;;;12.00;99.90;;;;;;5125939;27;20129;-62
2022/12/31 00:11:14;;;;;;;13.48;2.63;;;11.90;99.90;;;;;;5127109;27;20047;-61
2022/12/31 00:13:40;;;;;;;12.45;2.60;;;12.00;99.90;;;;;;5126215;27;20037;-60
2022/12/31 00:16:12;;;;;;;11.15;3.30;;;12.00;99.90;;;;;;5127186;27;20046;-61
2022/12/31 00:18:38;;;;;;;9.43;2.58;;;12.00;99.90;;;;;;5125946;27;20035;-59
2022/12/31 00:21:08;;;;;;;12.38;2.83;;;12.00;99.90;;;;;;5125767;27;20050;-58
2022/12/31 00:23:34;;;;;;;9.30;2.72;;;11.90;99.90;;;;;;5126457;27;20070;-58
2022/12/31 00:26:05;;;;;;;9.35;2.50;;;12.00;99.90;;;;;;5126224;27;20043;-61
2022/12/31 00:28:32;;;;;;;12.63;2.53;;;11.90;99.90;;;;;;5126116;27;20431;-60
2022/12/31 00:31:13;;;;;;;11.25;2.65;;;11.90;99.90;;;;;;5127038;27;20043;-60
2022/12/31 00:33:40;;;;;;;8.13;2.40;;;11.90;99.90;;;;;;5126588;27;20709;-61
2022/12/31 00:36:14;;;;;;;9.65;3.10;;;11.90;99.90;;;;;;5126156;27;20049;-61
2022/12/31 00:38:41;;;;;;;13.32;3.53;;;11.90;99.90;;;;;;5126256;27;20135;-60
2022/12/31 00:41:07;;;;;;;13.45;3.20;;;11.90;99.90;;;;;;5126222;27;20035;-62
2022/12/31 00:43:34;;;;;;;10.57;3.00;;;11.90;99.90;;;;;;5125651;27;20027;-62
2022/12/31 00:46:00;;;;;;;11.38;2.85;;;11.80;99.90;;;;;;5126542;27;20043;-59
2022/12/31 00:48:26;;;;;;;12.13;3.03;;;11.80;99.90;;;;;;5125142;27;20068;-60
2022/12/31 00:50:53;;;;;;;13.20;3.25;;;11.80;99.90;;;;;;5132921;27;20082;-59
2022/12/31 00:53:19;;;;;;;11.45;3.30;;;11.80;99.90;;;;;;5146404;27;20058;-61
2022/12/31 00:55:45;;;;;;;12.43;3.67;;;11.80;99.90;;;;;;5146216;27;20053;-60
2022/12/31 00:58:11;;;;;;;11.35;3.42;;;11.80;99.90;;;;;;5145951;27;20042;-60
2022/12/31 01:00:37;;;;;;;10.40;3.20;;;11.80;99.90;;;;;;5146863;27;20031;-60
2022/12/31 01:03:04;;;;;;;15.15;3.92;;;11.80;99.90;;;;;;5146825;27;20042;-59
2022/12/31 01:05:30;;;;;;;8.32;3.08;;;11.80;99.90;;;;;;5145350;27;20405;-59
2022/12/31 01:07:56;;;;;;;14.40;3.33;;;11.80;99.90;;;;;;5145818;27;20038;-60
2022/12/31 01:13:06;;;;;;;13.35;3.42;;;11.80;99.90;;;;;;5145862;27;20050;-60
2022/12/31 01:15:37;;;;;;;9.15;3.40;;;11.70;99.90;;;;;;5146473;27;20031;-60
2022/12/31 01:18:06;;;;;;;12.70;4.25;;;11.70;99.90;;;;;;5146614;27;20039;-58
2022/12/31 01:20:41;;;;;;;8.90;4.05;;;11.70;99.90;;;;;;5144837;27;20455;-62
2022/12/31 01:23:08;;;;;;;10.35;3.75;;;11.70;99.90;;;;;;5146693;27;20579;-59
2022/12/31 01:25:36;;;;;;;10.68;3.80;;;11.70;99.90;;;;;;5144968;27;20034;-60
2022/12/31 01:28:03;;;;;;;11.02;3.95;;;11.70;99.90;;;;;;5145669;27;20512;-59
2022/12/31 01:30:29;;;;;;;10.27;4.47;;;11.70;99.90;;;;;;5146436;27;20058;-60
2022/12/31 01:32:55;;;;;;;11.13;4.50;;;11.70;99.90;;;;;;5145074;27;20501;-59
2022/12/31 01:35:20;;;;;;;10.88;4.22;;;11.70;99.90;;;;;;5144458;27;20034;-59
2022/12/31 01:37:46;;;;;;;9.63;4.45;;;11.70;99.90;;;;;;5145050;27;20461;-62
2022/12/31 01:40:11;;;;;;;11.40;4.82;;;11.70;99.90;;;;;;5145080;27;20070;-61
2022/12/31 01:42:37;;;;;;;11.05;4.88;;;11.70;99.90;;;;;;5127716;27;20074;-61
2022/12/31 01:45:08;;;;;;;12.00;5.25;;;11.70;99.90;;;;;;5145206;27;20046;-62
2022/12/31 01:47:42;;;;;;;11.93;4.78;;;11.70;99.90;;;;;;5145751;27;20057;-59
2022/12/31 01:50:21;;;;;;;11.85;4.80;;;11.70;99.90;;;;;;5144797;27;20688;-59
2022/12/31 01:52:51;;;;;;;10.05;4.63;;;11.70;99.90;;;;;;5144810;27;20043;-59
2022/12/31 01:55:37;;;;;;;13.30;5.00;;;11.70;99.90;;;;;;5145377;27;20115;-59
2022/12/31 01:58:14;;;;;;;13.45;4.68;;;11.70;99.90;;;;;;5145898;27;20469;-59
2022/12/31 02:00:41;;;;;;;11.82;4.35;;;11.70;99.90;;;;;;5145582;27;20035;-60
2022/12/31 02:03:07;;;;;;;13.65;4.22;;;11.70;99.90;;;;;;5144782;27;20113;-59
2022/12/31 02:05:40;;;;;;;12.40;3.80;;;11.70;99.90;;;;;;5144268;27;20118;-60
2022/12/31 02:08:06;;;;;;;13.13;4.63;;;11.70;99.90;;;;;;5144544;27;20262;-60
2022/12/31 02:10:32;;;;;;;11.82;4.43;;;11.70;99.90;;;;;;5130820;27;20031;-59
2022/12/31 02:12:58;;;;;;;11.75;4.50;;;11.70;99.90;;;;;;5107301;27;20054;-60
2022/12/31 02:16:01;;;;;;;11.32;4.43;;;11.70;99.90;;;;;;5145479;27;20089;-60
2022/12/31 02:19:20;;;;;;;9.65;4.28;;;11.70;99.90;;;;;;5145437;27;20087;-58
2022/12/31 02:22:03;;;;;;;13.02;4.80;;;11.70;99.90;;;;;;5060424;28;20037;-61
2022/12/31 02:25:06;;;;;;;12.32;4.53;;;11.60;99.90;;;;;;5059474;28;20032;-59
2022/12/31 02:28:00;;;;;;;16.15;5.00;;;11.60;99.90;;;;;;5131341;27;20078;-59
2022/12/31 02:30:31;;;;;;;12.03;4.30;;;11.60;99.90;;;;;;5125018;27;20123;-59
2022/12/31 02:33:07;;;;;;;12.93;4.43;;;11.50;99.90;;;;;;5124695;27;20265;-59
2022/12/31 02:35:47;;;;;;;10.95;4.28;;;11.50;99.90;;;;;;5136111;27;20071;-59
2022/12/31 02:38:26;;;;;;;10.88;4.00;;;11.50;99.90;;;;;;5144474;27;20050;-60
2022/12/31 02:40:55;;;;;;;15.98;4.07;;;11.50;99.90;;;;;;5125926;27;20504;-58
2022/12/31 02:43:21;;;;;;;27.08;5.03;;;11.50;99.90;;;;;;5143729;27;20753;-59
2022/12/31 02:45:54;;;;;;;14.35;4.90;;;11.50;99.90;;;;;;5145175;27;20042;-59
2022/12/31 02:48:45;;;;;;;14.13;3.67;;;11.50;99.90;;;;;;5144128;27;20086;-58
2022/12/31 02:51:31;;;;;;;8.23;3.63;;;11.50;99.90;;;;;;5142796;27;20103;-59
2022/12/31 02:54:11;;;;;;;12.65;4.07;;;11.50;99.90;;;;;;5123955;27;20039;-62
2022/12/31 02:56:49;;;;;;;12.40;3.70;;;11.50;99.90;;;;;;5143379;27;20126;-59
2022/12/31 03:02:31;;;;;;;;;;;11.40;99.90;;;;;;5144805;27;20090;-60
2022/12/31 03:05:01;;;;;;;13.65;3.08;;;11.30;99.90;;;;;;5143163;27;19951;-58
2022/12/31 03:07:29;;;;;;;10.35;3.13;;;11.30;99.90;;;;;;5143061;27;20049;-59
2022/12/31 03:09:54;;;;;;;8.85;2.85;;;11.30;99.90;;;;;;5143858;27;20043;-58
2022/12/31 03:15:18;;;;;;;8.98;2.33;;;11.20;99.90;;;;;;5147683;27;20143;-58
2022/12/31 03:18:04;;;;;;;8.25;2.22;;;11.20;99.90;;;;;;5148711;27;20033;-59
2022/12/31 03:23:26;;;;;;;6.13;1.90;;;11.20;99.90;;;;;;5129324;27;20047;-59
2022/12/31 03:25:53;;;;;;;8.40;2.00;;;11.10;99.90;;;;;;5148057;27;20454;-60
2022/12/31 03:28:22;;;;;;;8.13;1.60;;;11.10;99.90;;;;;;5147583;27;20039;-59
2022/12/31 03:30:51;;;;;;;7.25;1.80;;;11.10;99.90;;;;;;5148642;27;20054;-60
2022/12/31 03:33:17;;;;;;;7.85;1.90;;;11.10;99.90;;;;;;5128427;27;20034;-59
2022/12/31 03:35:45;;;;;;;7.55;1.70;;;11.10;99.90;;;;;;5147466;27;20039;-57
2022/12/31 03:38:10;;;;;;;7.43;1.50;;;11.10;99.90;;;;;;5147580;27;20045;-57
2022/12/31 03:40:42;;;;;;;5.07;1.50;;;11.00;99.90;;;;;;5147916;27;20401;-59
2022/12/31 03:43:07;;;;;;;7.95;1.55;;;11.00;99.90;;;;;;5147883;27;20038;-59
2022/12/31 03:45:33;;;;;;;7.60;1.70;;;11.00;99.90;;;;;;5148351;27;20498;-58
2022/12/31 03:48:00;;;;;;;8.10;1.92;;;11.00;99.90;;;;;;5148183;27;20408;-57
2022/12/31 03:50:26;;;;;;;6.60;1.40;;;10.90;99.90;;;;;;5146797;27;20075;-60
2022/12/31 03:52:52;;;;;;;5.40;1.50;;;10.90;99.90;;;;;;5129876;27;20046;-59
2022/12/31 03:55:18;;;;;;;4.70;1.50;;;10.90;99.90;;;;;;5147075;27;20039;-59
2022/12/31 03:57:43;;;;;;;3.85;1.35;;;10.90;99.90;;;;;;5148203;27;20039;-60
2022/12/31 04:00:12;;;;;;;5.70;1.35;;;10.90;99.90;;;;;;5146822;27;20062;-59
2022/12/31 04:02:38;;;;;;;5.55;1.30;;;10.80;99.90;;;;;;5148216;27;20053;-56
2022/12/31 04:05:04;;;;;;;4.95;1.30;;;10.90;99.90;;;;;;5146893;27;20047;-58
2022/12/31 04:07:30;;;;;;;5.68;1.15;;;10.80;99.90;;;;;;5146790;27;20114;-58
2022/12/31 04:09:56;;;;;;;7.78;1.30;;;10.80;99.90;;;;;;5147120;27;20122;-58
2022/12/31 04:12:22;;;;;;;7.25;1.20;;;10.80;99.90;;;;;;5147853;27;20034;-59
2022/12/31 04:14:47;;;;;;;8.63;1.48;;;10.80;99.90;;;;;;5146390;27;20039;-59
2022/12/31 04:17:13;;;;;;;6.50;1.58;;;10.80;99.90;;;;;;5129047;27;20438;-59
2022/12/31 04:19:38;;;;;;;6.07;1.42;;;10.80;99.90;;;;;;5146811;27;20043;-59
2022/12/31 04:22:04;;;;;;;6.35;1.23;;;10.70;99.90;;;;;;5146090;27;20026;-59
2022/12/31 04:24:30;;;;;;;6.60;1.40;;;10.70;99.90;;;;;;5147261;27;20047;-58
2022/12/31 04:26:56;;;;;;;8.05;1.40;;;10.70;99.90;;;;;;5147678;27;20030;-58
2022/12/31 04:29:21;;;;;;;6.78;1.67;;;10.60;99.90;;;;;;5146257;27;20034;-59
2022/12/31 04:31:47;;;;;;;7.35;1.60;;;10.60;99.90;;;;;;5147013;27;20558;-58
2022/12/31 04:34:13;;;;;;;6.38;1.90;;;10.60;99.90;;;;;;5147446;27;20053;-60
2022/12/31 04:36:38;;;;;;;7.93;1.67;;;10.60;99.90;;;;;;5145776;27;20099;-59
2022/12/31 04:39:04;;;;;;;5.97;1.70;;;10.60;99.90;;;;;;5145027;27;20095;-59
2022/12/31 04:41:30;;;;;;;5.22;1.95;;;10.60;99.90;;;;;;5147556;27;20037;-60
2022/12/31 04:43:57;;;;;;;12.52;2.20;;;10.60;99.90;;;;;;5145049;27;20038;-60
2022/12/31 04:46:25;;;;;;;7.05;1.90;;;10.60;99.90;;;;;;5147213;27;20039;-59
2022/12/31 04:48:51;;;;;;;8.98;2.38;;;10.70;99.90;;;;;;5145731;27;20102;-60
2022/12/31 04:51:17;;;;;;;7.15;2.05;;;10.70;99.90;;;;;;5145703;27;20077;-61
2022/12/31 04:53:43;;;;;;;6.93;2.00;;;10.60;99.90;;;;;;5146337;27;20446;-60
2022/12/31 04:56:09;;;;;;;6.45;2.25;;;10.60;99.90;;;;;;5146386;27;20038;-60
2022/12/31 04:58:36;;;;;;;14.15;2.95;;;10.60;99.90;;;;;;5145179;27;20078;-60
2022/12/31 05:01:02;;;;;;;6.30;2.30;;;10.70;99.90;;;;;;5128453;27;20068;-61
2022/12/31 05:03:28;;;;;;;8.15;2.85;;;10.60;99.90;;;;;;5147174;27;20043;-60
2022/12/31 05:05:58;;;;;;;8.68;2.90;;;10.60;99.90;;;;;;5144389;27;20125;-59
2022/12/31 05:08:24;;;;;;;11.30;2.95;;;10.70;99.90;;;;;;5144797;27;20529;-59
2022/12/31 05:10:49;;;;;;;8.32;2.67;;;10.60;99.90;;;;;;5145705;27;20039;-63
2022/12/31 05:13:15;;;;;;;11.55;2.80;;;10.60;99.90;;;;;;5146044;27;20043;-59
2022/12/31 05:15:41;;;;;;;9.40;2.70;;;10.60;99.90;;;;;;5146659;27;20494;-58
2022/12/31 05:18:07;;;;;;;9.05;2.72;;;10.70;99.90;;;;;;5127594;27;20081;-60
2022/12/31 05:20:34;;;;;;;9.48;3.10;;;10.70;99.90;;;;;;5126595;27;20042;-59
2022/12/31 05:22:59;;;;;;;11.63;3.00;;;10.70;99.90;;;;;;5126864;27;20041;-59
2022/12/31 05:25:25;;;;;;;10.35;2.92;;;10.70;99.90;;;;;;5145723;27;20043;-59
2022/12/31 05:27:51;;;;;;;6.53;2.67;;;10.70;99.90;;;;;;5146558;27;20065;-59
2022/12/31 05:30:17;;;;;;;11.13;3.17;;;10.70;99.90;;;;;;5145868;27;20847;-58
2022/12/31 05:32:43;;;;;;;6.85;2.17;;;10.60;99.90;;;;;;5146172;27;20035;-60
2022/12/31 05:35:09;;;;;;;8.35;2.30;;;10.70;99.90;;;;;;5144255;27;20458;-57
2022/12/31 05:37:34;;;;;;;8.63;2.67;;;10.70;99.90;;;;;;5145217;27;20042;-60
2022/12/31 05:40:00;;;;;;;9.02;2.50;;;10.70;99.90;;;;;;5144974;27;20072;-59
2022/12/31 05:42:26;;;;;;;10.30;2.95;;;10.70;99.90;;;;;;5146038;27;20625;-61
2022/12/31 05:44:51;;;;;;;10.60;2.30;;;10.70;99.90;;;;;;5145220;27;20728;-61
2022/12/31 05:47:17;;;;;;;7.30;2.38;;;10.70;99.90;;;;;;5145317;27;20058;-59
2022/12/31 05:49:43;;;;;;;6.97;1.88;;;10.70;99.90;;;;;;5144845;27;20400;-59
2022/12/31 05:52:08;;;;;;;5.88;1.90;;;10.70;99.90;;;;;;5144640;27;20062;-60
2022/12/31 05:54:35;;;;;;;8.90;1.95;;;10.80;99.90;;;;;;5144819;27;20081;-57
2022/12/31 05:57:01;;;;;;;5.93;1.60;;;10.80;99.90;;;;;;5127314;27;20050;-60
2022/12/31 05:59:26;;;;;;;11.77;2.75;;;10.80;99.90;;;;;;5144930;27;20042;-60
2022/12/31 06:01:52;;;;;;;10.25;2.70;;;10.80;99.90;;;;;;5126755;27;20049;-58
2022/12/31 06:04:18;;;;;;;9.57;4.07;;;10.80;99.90;;;;;;5145242;27;20034;-60
2022/12/31 06:06:43;;;;;;;11.90;4.50;;;10.80;99.90;;;;;;5143573;27;20041;-59
2022/12/31 06:09:09;;;;;;;14.63;5.97;;;10.80;99.90;;;;;;5144271;27;20102;-60
2022/12/31 06:11:34;;;;;;;12.93;5.90;;;10.80;99.90;;;;;;5145764;27;20088;-60
2022/12/31 06:14:00;;;;;;;16.65;6.43;;;10.80;99.90;;;;;;5144769;27;20497;-60
2022/12/31 06:16:26;;;;;;;12.98;6.18;;;10.80;99.90;;;;;;5145485;27;20623;-60
2022/12/31 06:18:52;;;;;;;15.90;7.70;;;10.80;99.90;;;;;;5145362;27;20113;-60
2022/12/31 06:21:19;;;;;;;14.73;7.00;;;10.70;99.90;;;;;;5144001;27;20030;-60
2022/12/31 06:23:45;;;;;;;12.25;7.00;;;10.70;99.90;;;;;;5144775;27;20497;-60
2022/12/31 06:26:10;;;;;;;11.57;6.20;;;10.70;99.90;;;;;;5144513;27;20063;-59
2022/12/31 06:28:36;;;;;;;13.57;7.00;;;10.70;99.90;;;;;;5143102;27;20046;-60
2022/12/31 06:31:04;;;;;;;12.57;6.18;;;10.80;99.90;;;;;;5145148;27;20054;-60
2022/12/31 06:33:29;;;;;;;10.30;5.65;;;10.80;99.90;;;;;;5145067;27;20601;-60
2022/12/31 06:35:56;;;;;;;12.15;4.97;;;10.70;99.90;;;;;;5143462;27;20047;-61
2022/12/31 06:38:23;;;;;;;11.35;5.35;;;10.70;99.90;;;;;;5143377;27;20045;-59
2022/12/31 06:40:49;;;;;;;11.52;5.28;;;10.70;99.90;;;;;;5143939;27;20070;-60
2022/12/31 06:43:14;;;;;;;9.88;5.30;;;10.70;99.90;;;;;;5144506;27;20066;-60
2022/12/31 06:45:40;;;;;;;11.10;5.25;;;10.70;99.90;;;;;;5145789;27;20074;-59
2022/12/31 06:48:06;;;;;;;13.95;5.53;;;10.70;99.90;;;;;;5149203;27;20034;-60
2022/12/31 06:50:31;;;;;;;12.13;4.78;;;10.70;99.90;;;;;;5146610;27;20091;-58
2022/12/31 06:52:57;;;;;;;11.85;5.20;;;10.70;99.90;;;;;;5148201;27;20048;-60
2022/12/31 06:55:23;;;;;;;9.00;4.07;;;10.70;99.90;;;;;;5148520;27;20046;-59
2022/12/31 06:57:48;;;;;;;7.88;3.85;;;10.70;99.90;;;;;;5149723;27;20077;-61
2022/12/31 07:00:15;;;;;;;8.60;2.88;;;10.70;99.90;;;;;;5148267;27;20437;-60
2022/12/31 07:03:05;;;;;;;5.80;2.75;;;10.60;99.90;;;;;;5149124;27;20088;-60
2022/12/31 07:05:57;;;;;;;7.47;2.85;;;10.60;99.90;;;;;;5112425;27;20720;-59
2022/12/31 07:08:55;;;;;;;7.85;2.50;;;10.60;99.90;;;;;;5144527;27;20054;-60
2022/12/31 07:11:25;;;;;;;7.18;2.35;;;10.50;99.90;;;;;;5148962;27;20057;-59
2022/12/31 07:14:09;;;;;;;5.40;1.73;;;10.50;99.90;;;;;;5148015;27;20034;-59
2022/12/31 07:17:09;;;;;;;8.53;2.30;;;10.50;99.90;;;;;;5148850;27;20039;-59
2022/12/31 07:19:53;;;;;;;4.03;1.70;;;10.40;99.90;;;;;;5147630;27;20272;-59
2022/12/31 07:22:19;;;;;;;7.60;1.80;;;10.40;99.90;;;;;;5147761;27;20070;-61
2022/12/31 07:24:45;;;;;;;5.55;1.80;;;10.40;99.90;;;;;;5146848;27;20045;-60
2022/12/31 07:27:34;;;;;;;6.35;2.00;;;10.40;99.90;;;;;;5149074;27;20264;-58
2022/12/31 07:30:06;;;;;;;4.53;2.00;;;10.40;99.90;;;;;;5148111;27;20499;-58
2022/12/31 07:33:04;;;;;;;5.30;1.90;;;10.40;99.90;;;;;;5148373;27;20039;-60
2022/12/31 07:35:51;;;;;;;6.07;1.88;;;10.40;99.90;;;;;;5147436;27;20046;-59
2022/12/31 07:38:34;;;;;;;7.90;2.17;;;10.40;99.90;;;;;;5147047;27;20508;-59
2022/12/31 07:41:16;;;;;;;4.45;1.83;;;10.40;99.90;;;;;;5148561;27;20066;-58
2022/12/31 07:44:09;;;;;;;7.22;1.75;;;10.40;99.90;;;;;;5146635;27;20058;-59
2022/12/31 07:46:35;;;;;;;5.03;1.85;;;10.40;99.90;;;;;;5129767;27;20042;-59
2022/12/31 07:49:01;;;;;;;5.85;2.03;;;10.40;99.90;;;;;;5148302;27;20049;-58
2022/12/31 07:51:27;;;;;;;5.30;2.20;;;10.40;99.90;;;;;;5146803;27;20114;-58
2022/12/31 07:53:52;;;;;;;5.38;2.15;;;10.40;99.90;;;;;;5147474;27;20438;-59
2022/12/31 07:56:18;;;;;;;5.82;2.28;;;10.40;99.90;;;;;;5147395;27;20039;-59
2022/12/31 07:59:15;;;;;;;4.90;2.30;;;10.40;99.90;;;;;;5147124;27;20066;-59
2022/12/31 08:02:02;;;;;;;5.10;2.17;;;10.40;99.90;;;;;;5094787;27;20058;-59
2022/12/31 08:04:53;;;;;;;6.88;2.65;;;10.30;99.90;;;;;;5147135;27;20041;-60
2022/12/31 08:07:27;;;;;;;6.60;2.28;;;10.40;99.90;;;;;;5146852;27;20042;-60
2022/12/31 08:10:06;;;;;;;6.60;2.67;;;10.40;99.90;;;;;;5147592;27;20035;-60
2022/12/31 08:12:36;;;;;;;6.30;2.75;;;10.40;99.90;;;;;;5147946;27;20038;-61
2022/12/31 08:15:10;;;;;;;7.13;2.75;;;10.40;99.90;;;;;;5147047;27;20035;-59
2022/12/31 08:17:36;;;;;;;;;;;10.30;99.90;;;;;;5147119;27;20047;-59
2022/12/31 08:20:02;;;;;;;5.68;2.50;;;10.30;99.90;;;;;;5146815;27;20624;-59
2022/12/31 08:22:39;;;;;;;6.35;2.67;;;10.30;99.90;;;;;;5146422;27;20072;-59
2022/12/31 08:25:24;;;;;;;6.50;3.03;;;10.40;99.90;;;;;;5146668;27;20034;-59
2022/12/31 08:28:28;;;;;;;7.32;2.72;;;10.40;99.90;;;;;;5129097;27;20470;-59
2022/12/31 08:31:17;;;;;;;7.28;2.78;;;10.40;99.90;;;;;;5147739;27;20039;-59
2022/12/31 08:34:01;;;;;;;5.00;2.47;;;10.50;99.90;;;;;;5147485;27;20045;-59
2022/12/31 08:37:11;;;;;;;14.43;2.60;;;10.50;99.90;;;;;;5145174;27;20054;-57
2022/12/31 08:39:37;;;;;;;4.13;1.65;;;10.50;99.90;;;;;;5146627;27;20035;-61
2022/12/31 08:42:08;;;;;;;5.40;2.17;;;10.60;99.90;;;;;;5147744;27;20357;-60
2022/12/31 08:44:39;;;;;;;6.47;1.92;;;10.60;99.90;;;;;;5146470;27;20038;-60
2022/12/31 08:47:19;;;;;;;4.32;1.77;;;10.70;99.90;;;;;;5146139;27;20146;-60
2022/12/31 08:49:45;;;;;;;5.00;1.90;;;10.70;99.90;;;;;;5145746;27;20034;-59
2022/12/31 08:52:22;;;;;;;6.28;2.25;;;10.80;99.90;;;;;;5145607;27;20043;-59
2022/12/31 08:54:48;;;;;;;4.93;2.42;;;10.80;99.90;;;;;;5146210;27;20038;-60
2022/12/31 08:57:29;;;;;;;6.93;2.42;;;10.80;99.90;;;;;;5128773;27;20058;-59
2022/12/31 09:00:04;;;;;;;6.32;3.20;;;10.90;99.90;;;;;;5146820;27;20034;-60
2022/12/31 09:02:29;;;;;;;6.05;3.20;;;11.00;99.90;;;;;;5147557;27;20049;-61
2022/12/31 09:05:08;;;;;;;6.45;3.20;;;11.00;99.90;;;;;;5146547;27;20038;-59
2022/12/31 09:07:40;;;;;;;6.10;3.40;;;11.10;99.90;;;;;;5146608;27;20566;-57
2022/12/31 09:10:08;;;;;;;6.55;3.40;;;11.10;99.90;;;;;;5146152;27;20031;-59
2022/12/31 09:12:41;;;;;;;6.47;3.60;;;11.20;99.90;;;;;;5147108;27;20502;-62
2022/12/31 09:15:28;;;;;;;5.80;3.20;;;11.30;99.90;;;;;;5145731;27;20058;-60
2022/12/31 09:17:54;;;;;;;5.35;2.90;;;11.40;99.90;;;;;;5146787;27;20421;-60
2022/12/31 09:20:25;;;;;;;5.28;2.85;;;11.50;99.90;;;;;;5144599;27;20031;-60
2022/12/31 09:22:53;;;;;;;5.65;2.42;;;11.70;99.90;;;;;;5145472;27;20089;-61
2022/12/31 09:25:20;;;;;;;5.30;2.50;;;11.70;99.90;;;;;;5146156;27;20518;-58
2022/12/31 09:27:49;;;;;;;3.83;1.75;;;11.80;99.90;;;;;;5146714;27;20047;-60
2022/12/31 09:30:16;;;;;;;5.95;2.35;;;11.90;99.90;;;;;;5146128;27;20038;-59
2022/12/31 09:32:57;;;;;;;6.57;2.30;;;11.90;99.90;;;;;;5146546;27;20031;-59
2022/12/31 09:35:32;;;;;;;4.85;2.00;;;12.10;99.90;;;;;;5145375;27;20049;-61
2022/12/31 09:38:09;;;;;;;6.65;2.15;;;12.10;99.90;;;;;;5145052;27;20046;-60
2022/12/31 09:40:49;;;;;;;6.07;1.75;;;12.20;99.90;;;;;;5145841;27;20279;-62
2022/12/31 09:43:35;;;;;;;4.00;1.52;;;12.20;99.90;;;;;;5145847;27;20126;-62
2022/12/31 09:46:37;;;;;;;6.28;1.80;;;12.20;99.90;;;;;;5146044;27;20046;-59
2022/12/31 09:49:39;;;;;;;5.63;2.00;;;12.30;99.90;;;;;;5145873;27;20482;-61
2022/12/31 09:52:28;;;;;;;5.70;1.85;;;12.30;99.90;;;;;;5124040;27;20055;-61
2022/12/31 09:55:17;;;;;;;4.15;1.45;;;12.40;99.90;;;;;;5138154;27;20043;-59
2022/12/31 09:57:55;;;;;;;5.63;1.60;;;12.40;99.90;;;;;;5145707;27;20049;-60
2022/12/31 10:00:22;;;;;;;3.47;1.50;;;12.50;99.90;;;;;;5143690;27;20549;-60
2022/12/31 10:03:12;;;;;;;4.28;1.20;;;12.50;99.90;;;;;;5145740;27;20087;-60
2022/12/31 10:06:25;;;;;;;3.08;1.20;;;12.60;99.90;;;;;;5143021;27;20053;-59
2022/12/31 10:09:30;;;;;;;3.70;1.10;;;12.60;99.90;;;;;;5104172;27;20053;-61
2022/12/31 10:12:22;;;;;;;5.00;1.20;;;12.80;99.90;;;;;;5121357;27;20071;-58
2022/12/31 10:15:04;;;;;;;4.00;0.85;;;12.80;99.90;;;;;;5119754;27;20041;-59
2022/12/31 10:17:47;;;;;;;2.80;0.98;;;13.00;99.90;;;;;;5127622;27;20046;-61
2022/12/31 10:20:40;;;;;;;3.33;1.05;;;13.10;99.90;;;;;;5143828;27;20038;-60
2022/12/31 10:23:32;;;;;;;5.40;1.08;;;13.10;99.90;;;;;;5124994;27;20486;-59
2022/12/31 10:26:16;;;;;;;5.28;1.10;;;13.20;99.90;;;;;;5145270;27;20042;-61
2022/12/31 10:28:48;;;;;;;5.38;1.17;;;13.20;99.90;;;;;;5144689;27;20058;-61
2022/12/31 10:31:19;;;;;;;5.50;1.02;;;13.20;99.90;;;;;;5145686;27;20104;-62
2022/12/31 10:34:06;;;;;;;6.18;1.20;;;13.20;99.90;;;;;;5145239;27;20106;-60
2022/12/31 10:37:04;;;;;;;4.45;1.33;;;13.20;99.90;;;;;;5143609;27;20548;-60
2022/12/31 10:40:04;;;;;;;5.40;1.30;;;13.30;99.90;;;;;;5145210;27;20459;-57
2022/12/31 10:42:52;;;;;;;5.45;1.25;;;13.30;99.90;;;;;;5145507;27;20045;-58
2022/12/31 10:45:57;;;;;;;8.48;1.63;;;13.30;99.90;;;;;;5144902;27;20042;-57
2022/12/31 10:49:05;;;;;;;4.30;1.27;;;13.40;99.90;;;;;;5144969;27;20042;-57
2022/12/31 10:51:52;;;;;;;6.88;1.67;;;13.50;99.90;;;;;;5143893;27;20126;-58
2022/12/31 10:54:44;;;;;;;9.35;1.85;;;13.50;99.90;;;;;;5144325;27;20050;-57
2022/12/31 10:57:45;;;;;;;7.95;1.55;;;13.60;99.90;;;;;;5145923;27;20419;-63
2022/12/31 11:00:29;;;;;;;11.13;1.58;;;13.60;99.90;;;;;;5144780;27;20038;-60
2022/12/31 11:03:25;;;;;;;7.45;1.67;;;13.70;99.90;;;;;;5145257;27;20035;-61
2022/12/31 11:06:03;;;;;;;6.97;1.58;;;13.70;99.90;;;;;;5143251;27;20654;-62
2022/12/31 11:08:38;;;;;;;6.38;1.58;;;13.70;99.90;;;;;;5144691;27;20554;-61
2022/12/31 11:11:43;;;;;;;8.60;1.48;;;13.80;99.90;;;;;;5141983;27;20410;-59
2022/12/31 11:14:40;;;;;;;10.38;2.60;;;13.80;99.90;;;;;;5144597;27;20096;-60
2022/12/31 11:17:22;;;;;;;11.75;2.45;;;13.80;99.90;;;;;;5145067;27;20733;-60
2022/12/31 11:19:48;;;;;;;10.18;2.83;;;13.70;99.90;;;;;;5143899;27;20050;-59
2022/12/31 11:22:34;;;;;;;12.10;2.33;;;13.70;99.90;;;;;;5129586;27;20031;-61
2022/12/31 11:25:11;;;;;;;11.32;2.10;;;13.80;99.90;;;;;;5132075;27;20550;-60
2022/12/31 11:27:45;;;;;;;12.00;2.45;;;13.80;99.90;;;;;;5144158;27;20085;-62
2022/12/31 11:30:44;;;;;;;7.57;1.88;;;13.80;99.90;;;;;;5125397;27;20241;-62
2022/12/31 11:33:27;;;;;;;8.00;1.63;;;13.80;99.90;;;;;;5129163;27;20328;-60
2022/12/31 11:36:27;;;;;;;8.35;1.77;;;13.90;99.90;;;;;;5146862;27;20057;-58
2022/12/31 11:39:19;;;;;;;8.27;1.70;;;14.00;99.90;;;;;;5148138;27;20035;-60
2022/12/31 11:42:08;;;;;;;9.85;1.90;;;14.00;99.90;;;;;;5128271;27;20039;-61
2022/12/31 11:45:11;;;;;;;10.90;1.73;;;14.00;99.90;;;;;;5138998;27;20046;-59
2022/12/31 11:47:49;;;;;;;6.95;1.60;;;13.90;99.90;;;;;;5148725;27;20046;-60
2022/12/31 11:50:40;;;;;;;8.02;1.65;;;13.90;99.90;;;;;;5146650;27;20521;-61
2022/12/31 11:53:31;;;;;;;6.55;1.42;;;13.90;99.90;;;;;;5147152;27;20054;-62
2022/12/31 11:56:11;;;;;;;7.32;1.60;;;13.90;99.90;;;;;;5147397;27;20143;-56
2022/12/31 11:58:40;;;;;;;6.07;1.38;;;13.80;99.90;;;;;;5147575;27;20038;-60
2022/12/31 12:01:23;;;;;;;7.82;1.65;;;13.70;99.90;;;;;;5148466;27;20449;-60
2022/12/31 12:03:49;;;;;;;6.47;1.33;;;13.60;99.90;;;;;;5147513;27;20486;-63
2022/12/31 12:06:17;;;;;;;3.83;1.20;;;13.60;99.90;;;;;;5146865;27;20469;-62
2022/12/31 12:08:43;;;;;;;5.05;1.40;;;13.50;99.90;;;;;;5147955;27;20161;-59
2022/12/31 12:11:22;;;;;;;6.70;1.65;;;13.50;99.90;;;;;;5147520;27;20512;-60
2022/12/31 12:13:48;;;;;;;4.07;1.25;;;13.50;99.90;;;;;;5147200;27;20541;-58
2022/12/31 12:16:14;;;;;;;6.85;1.88;;;13.50;99.90;;;;;;5147953;27;20129;-59
2022/12/31 12:18:44;;;;;;;7.85;2.92;;;13.50;99.90;;;;;;5128480;27;20122;-60
2022/12/31 12:21:17;;;;;;;8.48;3.58;;;13.40;99.90;;;;;;5147078;27;20446;-58
2022/12/31 12:23:59;;;;;;;8.02;2.88;;;13.40;99.90;;;;;;5147040;27;20043;-61
2022/12/31 12:26:40;;;;;;;9.05;3.03;;;13.40;99.90;;;;;;5147040;27;20792;-60
2022/12/31 12:29:25;;;;;;;8.70;2.90;;;13.40;99.90;;;;;;5147274;27;20569;-60
2022/12/31 12:31:55;;;;;;;;;;;13.40;99.90;;;;;;5129313;27;20114;-60
2022/12/31 12:34:24;;;;;;;7.40;2.88;;;13.40;99.90;;;;;;5147063;27;20014;-61
2022/12/31 12:36:49;;;;;;;9.90;2.45;;;13.40;99.90;;;;;;5145196;27;20121;-59
2022/12/31 12:39:20;;;;;;;9.85;3.08;;;13.40;99.90;;;;;;5147304;27;20038;-62
2022/12/31 12:41:46;;;;;;;7.80;2.25;;;13.40;99.90;;;;;;5147920;27;20094;-63
2022/12/31 12:44:15;;;;;;;9.40;2.90;;;13.50;99.90;;;;;;5144043;27;20058;-62
2022/12/31 12:46:47;;;;;;;7.55;2.22;;;13.50;99.90;;;;;;5147329;27;20065;-62
2022/12/31 12:49:31;;;;;;;11.90;4.63;;;13.50;99.90;;;;;;5147584;27;20043;-58
2022/12/31 12:52:21;;;;;;;10.68;3.50;;;13.60;99.90;;;;;;5145444;27;20516;-62
2022/12/31 12:54:59;;;;;;;13.13;3.45;;;13.60;99.90;;;;;;5146536;27;20547;-63
2022/12/31 12:57:44;;;;;;;7.57;2.35;;;13.60;99.90;;;;;;5147466;27;20102;-63
2022/12/31 13:00:23;;;;;;;14.13;3.55;;;13.60;99.90;;;;;;5146622;27;20086;-63
2022/12/31 13:02:52;;;;;;;11.13;3.83;;;13.60;99.90;;;;;;5147111;27;20035;-59
2022/12/31 13:05:38;;;;;;;8.85;2.78;;;13.60;99.90;;;;;;5145370;27;20034;-59
2022/12/31 13:08:26;;;;;;;10.55;2.90;;;13.60;99.90;;;;;;5145522;27;20405;-57
2022/12/31 13:11:27;;;;;;;10.07;2.42;;;13.60;99.90;;;;;;5141413;27;20730;-60
2022/12/31 13:14:22;;;;;;;12.10;3.35;;;13.60;99.90;;;;;;5146250;27;20042;-61
2022/12/31 13:17:26;;;;;;;8.05;2.30;;;13.60;99.90;;;;;;5146406;27;20043;-62
2022/12/31 13:20:04;;;;;;;8.00;2.17;;;13.60;99.90;;;;;;5145218;27;21681;-51
2022/12/31 13:22:51;;;;;;;10.90;3.30;;;13.60;99.90;;;;;;5145159;27;20041;-49
2022/12/31 13:25:51;;;;;;;6.60;1.95;;;13.60;99.90;;;;;;5145561;27;20042;-51
2022/12/31 13:28:18;;;;;;;9.23;2.17;;;13.50;99.90;;;;;;5146127;27;20126;-44
2022/12/31 13:31:04;;;;;;;8.57;2.13;;;13.40;99.90;;;;;;5146107;27;20046;-48
2022/12/31 13:33:44;;;;;;;9.43;2.58;;;13.30;99.90;;;;;;5145883;27;20035;-48